Time;durP1;ratioP1;P1;durP2;ratioP2;P2;SDS_P1;SDS_P2;PMS_P1;PMS_P2;Temp;Humidity;BMP_temperature;BMP_pressure;BME280_temperature;BME280_humidity;BME280_pressure;Samples;Min_cycle;Max_cycle;Signal;HPM_P1;HPM_P2
2021/05/09 00:02:23;;;;;;;7.10;4.00;;;;;;;10.81;59.91;100638.50;5028935;28;20037;-21
2021/05/09 00:04:49;;;;;;;7.13;3.58;;;;;;;11.12;59.15;100660.22;5029015;28;20029;-20
2021/05/09 00:07:14;;;;;;;6.85;3.80;;;;;;;10.88;59.46;100659.84;5028903;28;20460;-21
2021/05/09 00:09:40;;;;;;;7.82;3.78;;;;;;;11.07;59.33;100652.81;5029137;28;20041;-22
2021/05/09 00:12:06;;;;;;;6.95;3.15;;;;;;;11.10;58.61;100664.97;5028934;28;20041;-21
2021/05/09 00:14:31;;;;;;;5.78;4.07;;;;;;;10.83;59.27;100657.78;5028744;28;20430;-22
2021/05/09 00:16:57;;;;;;;6.13;3.08;;;;;;;10.36;60.57;100670.28;5028779;28;20025;-21
2021/05/09 00:19:22;;;;;;;8.02;4.25;;;;;;;9.89;62.43;100666.63;5028872;28;20034;-21
2021/05/09 00:21:48;;;;;;;7.82;3.47;;;;;;;9.34;64.21;100669.25;5028512;28;20026;-21
2021/05/09 00:24:13;;;;;;;7.68;4.03;;;;;;;8.99;64.76;100676.34;5028605;28;20045;-22
2021/05/09 00:26:39;;;;;;;7.88;4.63;;;;;;;8.96;64.96;100692.72;5028736;28;20060;-22
2021/05/09 00:29:04;;;;;;;7.55;4.80;;;;;;;8.51;65.67;100678.81;5028670;28;20044;-21
2021/05/09 00:31:30;;;;;;;8.13;4.82;;;;;;;8.09;65.29;100680.41;5028905;28;20029;-21
2021/05/09 00:33:55;;;;;;;17.83;6.05;;;;;;;8.30;65.28;100688.41;5028738;28;20044;-18
2021/05/09 00:36:21;;;;;;;16.70;6.28;;;;;;;8.76;64.93;100682.72;5028409;28;20032;-21
2021/05/09 00:38:46;;;;;;;11.48;7.22;;;;;;;9.31;62.62;100679.44;5028556;28;20452;-21
2021/05/09 00:41:11;;;;;;;11.30;7.28;;;;;;;9.62;62.04;100689.66;5028460;28;20029;-21
2021/05/09 00:43:37;;;;;;;22.70;8.90;;;;;;;9.64;61.86;100691.13;5028425;28;20036;-21
2021/05/09 00:46:02;;;;;;;11.98;7.57;;;;;;;9.58;61.51;100699.91;5028361;28;20026;-21
2021/05/09 00:48:28;;;;;;;21.60;11.27;;;;;;;9.67;60.81;100691.75;5027981;28;20029;-21
2021/05/09 00:50:53;;;;;;;47.83;22.95;;;;;;;8.83;63.37;100683.63;5027011;28;20068;-21
2021/05/09 00:53:20;;;;;;;32.70;16.00;;;;;;;8.72;63.96;100707.25;5028494;28;20033;-21
2021/05/09 00:55:46;;;;;;;13.70;8.27;;;;;;;8.31;64.98;100705.97;5028173;28;20037;-21
2021/05/09 00:58:11;;;;;;;12.80;6.75;;;;;;;8.20;65.14;100706.50;5026193;28;20552;-21
2021/05/09 01:00:37;;;;;;;12.23;7.00;;;;;;;8.49;64.08;100707.44;5010474;28;20041;-21
2021/05/09 01:03:06;;;;;;;11.00;6.72;;;;;;;8.67;64.12;100696.38;5027918;28;20041;-21
2021/05/09 01:05:32;;;;;;;12.30;5.93;;;;;;;9.14;62.53;100706.38;5028019;28;20026;-21
2021/05/09 01:07:57;;;;;;;12.10;6.22;;;;;;;9.48;62.35;100723.38;5028133;28;20032;-21
2021/05/09 01:10:23;;;;;;;10.23;6.10;;;;;;;9.82;61.76;100719.06;5027916;28;20033;-21
2021/05/09 01:12:48;;;;;;;10.88;6.22;;;;;;;9.93;61.58;100730.97;5028140;28;20033;-21
2021/05/09 01:15:14;;;;;;;9.02;5.72;;;;;;;9.82;62.78;100721.72;5027859;28;20025;-20
2021/05/09 01:17:39;;;;;;;9.07;5.57;;;;;;;10.02;61.96;100706.63;5028208;28;20035;-19
2021/05/09 01:20:28;;;;;;;8.75;5.68;;;;;;;10.35;61.60;100723.78;5028431;28;20364;-21
2021/05/09 01:22:54;;;;;;;11.18;6.22;;;;;;;10.48;61.55;100733.66;5027664;28;20131;-21
2021/05/09 01:25:19;;;;;;;10.20;6.05;;;;;;;10.25;61.88;100718.81;5028022;28;20033;-21
2021/05/09 01:27:45;;;;;;;10.10;6.43;;;;;;;10.49;59.64;100730.00;5027962;28;20033;-21
2021/05/09 01:30:11;;;;;;;8.23;5.22;;;;;;;10.30;59.38;100743.06;5027465;28;20034;-18
2021/05/09 01:32:37;;;;;;;10.20;5.43;;;;;;;9.84;61.52;100736.47;5026327;28;20029;-22
2021/05/09 01:35:02;;;;;;;9.95;6.10;;;;;;;10.37;60.35;100738.56;5027682;28;20032;-21
2021/05/09 01:37:28;;;;;;;7.97;5.45;;;;;;;10.30;60.93;100732.41;5027961;28;20025;-21
2021/05/09 01:39:53;;;;;;;9.73;5.97;;;;;;;10.41;60.18;100734.47;5028281;28;20046;-20
2021/05/09 01:42:19;;;;;;;8.40;5.18;;;;;;;10.51;60.14;100744.75;5027378;28;20075;-21
2021/05/09 01:44:54;;;;;;;9.00;5.70;;;;;;;10.46;60.21;100744.53;5027727;28;20037;-21
2021/05/09 01:47:20;;;;;;;10.48;5.93;;;;;;;10.44;59.76;100752.75;5027588;28;20036;-21
2021/05/09 01:49:45;;;;;;;8.30;5.40;;;;;;;10.20;60.80;100755.91;5027603;28;20500;-21
2021/05/09 01:52:11;;;;;;;9.43;5.18;;;;;;;10.12;61.24;100754.25;5027444;28;20572;-20
2021/05/09 01:54:36;;;;;;;8.90;4.95;;;;;;;9.91;61.94;100744.53;5027646;28;20053;-21
2021/05/09 01:57:01;;;;;;;9.32;5.70;;;;;;;10.22;60.93;100746.69;5027476;28;20038;-21
2021/05/09 01:59:27;;;;;;;10.02;5.20;;;;;;;10.33;59.88;100739.97;5027559;28;20041;-21
2021/05/09 02:01:53;;;;;;;8.25;4.75;;;;;;;9.97;61.15;100751.72;5027539;28;20029;-21
2021/05/09 02:04:18;;;;;;;23.35;10.00;;;;;;;9.56;61.48;100747.19;5027393;28;20025;-21
2021/05/09 02:06:43;;;;;;;22.58;10.63;;;;;;;9.17;60.77;100769.81;5027701;28;20030;-21
2021/05/09 02:09:09;;;;;;;19.08;9.02;;;;;;;9.24;61.29;100765.38;5030137;28;20034;-21
2021/05/09 02:11:34;;;;;;;26.17;10.68;;;;;;;8.73;62.44;100773.53;5031269;28;20030;-19
2021/05/09 02:14:00;;;;;;;16.73;7.90;;;;;;;8.91;61.86;100773.09;5031483;28;20489;-19
2021/05/09 02:16:25;;;;;;;17.38;8.15;;;;;;;8.64;62.82;100783.47;5030862;28;20030;-21
2021/05/09 02:18:51;;;;;;;11.25;6.38;;;;;;;8.63;63.11;100775.69;5031019;28;20052;-22
2021/05/09 02:21:16;;;;;;;14.82;6.50;;;;;;;8.57;63.95;100787.06;5031059;28;20037;-22
2021/05/09 02:23:42;;;;;;;14.18;6.68;;;;;;;7.91;65.78;100785.22;5030939;28;20036;-21
2021/05/09 02:26:07;;;;;;;13.55;8.00;;;;;;;7.42;65.69;100759.19;5030988;28;20030;-21
2021/05/09 02:28:32;;;;;;;13.18;7.18;;;;;;;8.47;63.12;100790.03;5030902;28;20046;-21
2021/05/09 02:30:58;;;;;;;14.85;7.82;;;;;;;8.66;62.60;100783.25;5030622;28;20041;-22
2021/05/09 02:33:23;;;;;;;14.50;6.47;;;;;;;9.00;61.70;100789.75;5030865;28;20049;-21
2021/05/09 02:35:49;;;;;;;11.77;6.18;;;;;;;8.89;61.50;100787.59;5030875;28;20057;-21
2021/05/09 02:38:14;;;;;;;10.98;6.95;;;;;;;8.01;64.62;100764.50;5030460;28;20045;-21
2021/05/09 02:40:40;;;;;;;16.08;7.68;;;;;;;8.71;63.16;100780.88;5030607;28;20037;-21
2021/05/09 02:43:06;;;;;;;14.13;6.97;;;;;;;9.01;62.31;100796.69;5030589;28;20037;-20
2021/05/09 02:45:32;;;;;;;11.23;6.28;;;;;;;9.14;61.34;100799.50;5030324;28;20028;-20
2021/05/09 02:47:57;;;;;;;9.50;6.55;;;;;;;8.97;62.05;100798.94;5030917;28;20029;-18
2021/05/09 02:50:23;;;;;;;12.13;6.57;;;;;;;9.09;61.60;100791.25;5030391;28;20060;-21
2021/05/09 02:52:48;;;;;;;11.65;6.55;;;;;;;9.00;61.70;100822.50;5030460;28;20076;-21
2021/05/09 02:55:14;;;;;;;10.55;5.72;;;;;;;8.87;61.37;100818.88;5030395;28;20517;-20
2021/05/09 02:57:39;;;;;;;12.85;5.90;;;;;;;8.49;62.80;100816.41;5030251;28;20048;-21
2021/05/09 03:00:05;;;;;;;9.27;6.00;;;;;;;8.64;62.39;100806.56;5030214;28;20041;-21
2021/05/09 03:02:31;;;;;;;9.52;5.05;;;;;;;8.70;61.41;100811.13;5030236;28;20059;-21
2021/05/09 03:04:56;;;;;;;8.85;5.63;;;;;;;8.88;60.86;100833.81;5030152;28;20568;-20
2021/05/09 03:07:22;;;;;;;8.77;5.20;;;;;;;8.96;60.69;100844.34;5030070;28;20025;-21
2021/05/09 03:09:47;;;;;;;9.63;4.88;;;;;;;8.97;59.81;100845.97;5030042;28;20029;-21
2021/05/09 03:12:13;;;;;;;9.05;5.30;;;;;;;8.97;59.16;100832.69;5028480;28;20033;-21
2021/05/09 03:14:38;;;;;;;9.15;5.25;;;;;;;8.56;60.41;100851.88;5029834;28;20038;-20
2021/05/09 03:17:04;;;;;;;9.75;5.10;;;;;;;8.67;60.42;100821.34;5029978;28;20026;-21
2021/05/09 03:19:29;;;;;;;12.07;6.00;;;;;;;9.09;59.60;100849.78;5029331;28;20444;-21
2021/05/09 03:21:55;;;;;;;11.60;6.90;;;;;;;9.33;59.50;100853.91;5030188;28;20037;-19
2021/05/09 03:24:20;;;;;;;11.07;5.22;;;;;;;8.57;60.70;100854.34;5029892;28;20034;-21
2021/05/09 03:26:45;;;;;;;10.77;5.97;;;;;;;8.21;62.74;100865.72;5029759;28;20036;-22
2021/05/09 03:29:11;;;;;;;12.73;6.50;;;;;;;8.72;61.85;100882.75;5029611;28;20041;-21
2021/05/09 03:31:36;;;;;;;13.02;7.20;;;;;;;9.00;60.41;100880.19;5030056;28;20037;-22
2021/05/09 03:34:02;;;;;;;11.73;7.13;;;;;;;9.24;59.04;100874.50;5029832;28;20083;-22
2021/05/09 03:36:28;;;;;;;15.75;8.55;;;;;;;9.09;59.78;100894.19;5029371;28;20104;-21
2021/05/09 03:38:53;;;;;;;12.63;7.32;;;;;;;8.84;60.72;100903.34;5029764;28;20495;-21
2021/05/09 03:41:21;;;;;;;13.35;6.82;;;;;;;8.07;63.30;100910.88;5029491;28;20482;-21
2021/05/09 03:43:46;;;;;;;13.02;6.93;;;;;;;7.47;65.41;100894.00;5029246;28;20033;-20
2021/05/09 03:46:11;;;;;;;16.13;7.28;;;;;;;7.13;66.28;100908.47;5029179;28;20375;-21
2021/05/09 03:48:37;;;;;;;18.65;6.60;;;;;;;7.31;65.98;100927.59;5029226;28;20025;-23
2021/05/09 03:51:03;;;;;;;14.32;6.28;;;;;;;7.73;63.99;100931.59;5029268;28;20505;-21
2021/05/09 03:53:30;;;;;;;11.95;6.00;;;;;;;7.13;65.99;100938.50;5029267;28;20065;-21
2021/05/09 03:55:56;;;;;;;13.35;6.25;;;;;;;7.29;66.09;100936.72;5029030;28;20037;-21
2021/05/09 03:58:22;;;;;;;12.63;6.10;;;;;;;6.96;66.98;100934.28;5028664;28;20026;-20
2021/05/09 04:00:47;;;;;;;12.27;6.38;;;;;;;7.00;66.68;100920.47;5029118;28;20464;-20
2021/05/09 04:03:28;;;;;;;11.45;5.95;;;;;;;7.17;67.28;100955.72;5029199;28;20033;-18
2021/05/09 04:05:54;;;;;;;9.45;5.47;;;;;;;6.73;69.05;100964.19;5029063;28;20033;-21
2021/05/09 04:08:21;;;;;;;11.88;5.90;;;;;;;6.90;68.84;100972.09;5028812;28;20512;-21
2021/05/09 04:10:47;;;;;;;7.38;5.22;;;;;;;7.19;67.54;100961.69;5028829;28;20051;-21
2021/05/09 04:13:12;;;;;;;7.25;5.18;;;;;;;7.16;68.32;100951.41;5028797;28;20825;-21
2021/05/09 04:15:39;;;;;;;10.30;5.68;;;;;;;7.54;67.35;100959.47;5027575;28;20478;-21
2021/05/09 04:18:04;;;;;;;9.15;5.93;;;;;;;8.03;65.72;100984.81;5028825;28;20045;-21
2021/05/09 04:20:30;;;;;;;9.50;5.50;;;;;;;8.03;65.78;100990.94;5028569;28;20033;-21
2021/05/09 04:23:14;;;;;;;7.78;4.60;;;;;;;7.93;66.14;100995.69;5028651;28;20026;-21
2021/05/09 04:25:41;;;;;;;9.07;4.95;;;;;;;7.68;67.84;100960.50;5028675;28;20076;-21
2021/05/09 04:28:06;;;;;;;8.75;4.38;;;;;;;7.87;67.30;100969.84;5028601;28;20041;-21
2021/05/09 04:30:32;;;;;;;9.02;5.05;;;;;;;8.50;65.82;100993.50;5028299;28;20048;-20
2021/05/09 04:33:02;;;;;;;8.75;5.22;;;;;;;8.10;67.54;100998.19;5027830;28;20106;-22
2021/05/09 04:35:28;;;;;;;10.15;5.18;;;;;;;7.83;68.50;100987.94;5028409;28;20029;-21
2021/05/09 04:37:53;;;;;;;7.68;4.72;;;;;;;8.12;68.13;101012.13;5028327;28;20723;-20
2021/05/09 04:40:19;;;;;;;13.50;6.57;;;;;;;8.33;68.24;101017.56;5028408;28;20029;-18
2021/05/09 04:42:44;;;;;;;9.02;5.28;;;;;;;8.73;66.89;101018.19;5028884;28;20041;-20
2021/05/09 04:45:10;;;;;;;7.70;5.00;;;;;;;9.11;65.94;101004.75;5028588;28;20049;-21
2021/05/09 04:47:36;;;;;;;7.78;4.78;;;;;;;9.07;65.88;101019.44;5028289;28;20413;-21
2021/05/09 04:50:02;;;;;;;13.73;6.13;;;;;;;9.17;66.25;101003.19;5028287;28;20037;-21
2021/05/09 04:52:28;;;;;;;9.50;4.85;;;;;;;9.15;66.62;101029.97;5027787;28;20477;-21
2021/05/09 04:54:53;;;;;;;11.02;5.95;;;;;;;9.74;64.64;101038.84;5028154;28;20053;-21
2021/05/09 04:57:19;;;;;;;8.68;5.05;;;;;;;9.83;64.97;101040.38;5028286;28;20448;-21
2021/05/09 04:59:44;;;;;;;10.90;5.82;;;;;;;9.91;64.94;101052.75;5027954;28;20037;-21
2021/05/09 05:02:10;;;;;;;18.65;6.05;;;;;;;10.10;64.67;101045.97;5028051;28;20040;-17
2021/05/09 05:04:35;;;;;;;9.57;5.85;;;;;;;10.51;63.90;101039.97;5027989;28;20063;-21
2021/05/09 05:07:00;;;;;;;8.60;5.18;;;;;;;10.63;64.16;101046.41;5027864;28;20029;-21
2021/05/09 05:09:26;;;;;;;9.18;5.53;;;;;;;10.42;63.37;101049.94;5028178;28;20068;-21
2021/05/09 05:11:53;;;;;;;10.85;6.20;;;;;;;10.92;61.95;101049.88;5027958;28;20437;-21
2021/05/09 05:14:18;;;;;;;9.18;6.20;;;;;;;10.94;62.32;101039.81;5027794;28;20080;-21
2021/05/09 05:16:44;;;;;;;12.32;6.38;;;;;;;10.79;62.86;101046.09;5027790;28;20108;-20
2021/05/09 05:19:09;;;;;;;12.68;6.72;;;;;;;11.05;62.58;101060.59;5028107;28;20037;-18
2021/05/09 05:21:35;;;;;;;15.60;7.30;;;;;;;10.97;62.23;101060.75;5028058;28;20038;-20
2021/05/09 05:24:00;;;;;;;17.60;6.82;;;;;;;11.25;61.93;101053.50;5028283;28;20406;-21
2021/05/09 05:26:26;;;;;;;13.95;6.25;;;;;;;11.22;60.39;101063.78;5027757;28;20022;-21
2021/05/09 05:28:51;;;;;;;9.30;6.18;;;;;;;11.44;60.52;101062.63;5027853;28;20044;-21
2021/05/09 05:31:16;;;;;;;9.30;6.05;;;;;;;11.35;60.51;101052.31;5027844;28;20068;-20
2021/05/09 05:33:42;;;;;;;9.95;6.05;;;;;;;11.61;60.95;101071.13;5027695;28;20030;-21
2021/05/09 05:36:09;;;;;;;9.52;5.65;;;;;;;11.93;57.43;101060.75;5027626;28;20544;-21
2021/05/09 05:38:34;;;;;;;13.13;9.23;;;;;;;11.75;58.89;101071.13;5027359;28;20052;-21
2021/05/09 05:41:00;;;;;;;11.73;7.63;;;;;;;11.98;56.20;101066.28;5027865;28;20490;-21
2021/05/09 05:43:29;;;;;;;14.73;10.30;;;;;;;12.30;54.73;101039.78;5029660;28;20029;-21
2021/05/09 05:45:56;;;;;;;13.98;9.95;;;;;;;12.65;53.22;101071.66;5031638;28;20021;-21
2021/05/09 05:48:22;;;;;;;14.05;12.57;;;;;;;12.92;52.53;101072.44;5031311;28;20080;-21
2021/05/09 05:50:48;;;;;;;18.08;12.93;;;;;;;13.12;51.80;101072.38;5031507;28;20464;-21
2021/05/09 05:53:20;;;;;;;18.10;12.15;;;;;;;13.27;51.44;101070.25;5031605;28;20107;-21
2021/05/09 05:55:46;;;;;;;9.05;7.25;;;;;;;13.46;48.55;101076.63;5031616;28;20033;-21
2021/05/09 05:58:13;;;;;;;22.60;7.43;;;;;;;13.76;48.18;101076.03;5031031;28;20035;-20
2021/05/09 06:00:38;;;;;;;10.73;6.55;;;;;;;13.74;48.34;101079.97;5031274;28;20029;-21
2021/05/09 06:03:04;;;;;;;7.10;4.90;;;;;;;14.33;45.22;101094.84;5031203;28;20071;-21
2021/05/09 06:05:30;;;;;;;9.32;4.20;;;;;;;14.35;46.12;101092.75;5031263;28;20041;-20
2021/05/09 06:07:55;;;;;;;7.97;4.47;;;;;;;14.44;45.91;101099.50;5031235;28;20030;-20
2021/05/09 06:10:21;;;;;;;8.98;4.85;;;;;;;14.66;44.24;101083.03;5031086;28;20041;-20
2021/05/09 06:12:46;;;;;;;14.75;7.15;;;;;;;15.06;44.08;101096.88;5031295;28;20087;-20
2021/05/09 06:15:12;;;;;;;11.15;5.95;;;;;;;14.79;44.55;101093.66;5031092;28;20033;-20
2021/05/09 06:17:37;;;;;;;9.88;5.15;;;;;;;14.84;43.68;101091.09;5030979;28;20571;-18
2021/05/09 06:20:05;;;;;;;9.88;4.35;;;;;;;15.30;41.93;101098.88;5031263;28;20041;-20
2021/05/09 06:22:30;;;;;;;6.10;3.25;;;;;;;15.48;41.69;101109.63;5031110;28;20025;-18
2021/05/09 06:24:55;;;;;;;4.22;2.83;;;;;;;15.77;41.51;101109.91;5031210;28;20041;-21
2021/05/09 06:27:21;;;;;;;8.77;3.20;;;;;;;15.41;41.06;101103.53;5030938;28;20056;-20
2021/05/09 06:29:46;;;;;;;4.68;2.78;;;;;;;15.35;42.81;101107.91;5030736;28;20037;-22
2021/05/09 06:32:12;;;;;;;6.60;3.00;;;;;;;15.17;42.89;101116.81;5030520;28;20037;-21
2021/05/09 06:34:37;;;;;;;5.82;3.40;;;;;;;15.34;44.20;101110.81;5030348;28;20033;-20
2021/05/09 06:37:03;;;;;;;4.95;2.13;;;;;;;15.45;42.98;101118.97;5030537;28;20083;-20
2021/05/09 06:39:29;;;;;;;3.60;2.25;;;;;;;15.13;42.56;101109.41;5030602;28;20029;-21
2021/05/09 06:42:00;;;;;;;3.85;2.15;;;;;;;14.93;41.70;101109.63;5029179;28;20120;-21
2021/05/09 06:44:29;;;;;;;3.70;2.13;;;;;;;15.46;42.09;101119.78;5030291;28;20033;-20
2021/05/09 06:46:55;;;;;;;4.10;2.10;;;;;;;15.74;41.10;101121.13;5030097;28;20520;-20
2021/05/09 06:49:20;;;;;;;5.93;2.40;;;;;;;15.82;41.56;101121.63;5029853;28;20045;-26
2021/05/09 06:51:46;;;;;;;5.38;2.28;;;;;;;15.63;38.49;101120.81;5029438;28;20034;-20
2021/05/09 06:54:12;;;;;;;3.63;2.10;;;;;;;15.52;40.23;101121.56;5029069;28;20403;-19
2021/05/09 06:56:38;;;;;;;4.70;2.20;;;;;;;15.26;40.96;101120.84;5030034;28;20028;-21
2021/05/09 06:59:04;;;;;;;6.03;2.38;;;;;;;15.63;40.08;101118.13;5030196;28;20033;-20
2021/05/09 07:01:30;;;;;;;5.38;2.05;;;;;;;15.92;38.83;101125.66;5029999;28;20029;-20
2021/05/09 07:03:55;;;;;;;6.15;2.38;;;;;;;16.07;41.11;101137.63;5030312;28;20052;-20
2021/05/09 07:06:21;;;;;;;4.05;2.20;;;;;;;16.40;40.13;101122.84;5029948;28;20449;-21
2021/05/09 07:08:46;;;;;;;7.43;2.35;;;;;;;16.44;40.22;101132.09;5030128;28;20112;-21
2021/05/09 07:11:12;;;;;;;4.28;2.10;;;;;;;16.29;39.94;101106.69;5029990;28;20025;-20
2021/05/09 07:13:37;;;;;;;3.33;1.90;;;;;;;16.53;39.08;101121.81;5029810;28;20040;-18
2021/05/09 07:16:03;;;;;;;5.55;2.15;;;;;;;16.35;38.23;101138.88;5030085;28;20021;-20
2021/05/09 07:18:30;;;;;;;3.70;2.30;;;;;;;16.24;39.55;101131.56;5029857;28;20868;-20
2021/05/09 07:20:57;;;;;;;9.25;2.90;;;;;;;16.62;39.87;101122.28;5030161;28;20029;-20
2021/05/09 07:23:23;;;;;;;4.13;2.08;;;;;;;16.88;39.07;101121.03;5029954;28;20124;-21
2021/05/09 07:25:50;;;;;;;6.13;2.63;;;;;;;16.57;39.03;101128.38;5029679;28;20100;-20
2021/05/09 07:28:16;;;;;;;5.38;2.55;;;;;;;16.32;40.37;101133.13;5029440;28;20029;-20
2021/05/09 07:30:43;;;;;;;4.53;2.42;;;;;;;16.54;40.01;101130.72;5029517;28;20060;-20
2021/05/09 07:33:08;;;;;;;4.78;2.45;;;;;;;17.15;40.75;101137.53;5029412;28;20386;-21
2021/05/09 07:35:34;;;;;;;3.97;2.13;;;;;;;17.49;38.46;101129.63;5029555;28;20155;-20
2021/05/09 07:38:03;;;;;;;5.43;1.85;;;;;;;17.45;36.97;101147.34;5029549;28;20529;-20
2021/05/09 07:40:29;;;;;;;4.18;2.00;;;;;;;17.75;37.83;101146.28;5029184;28;20041;-20
2021/05/09 07:42:54;;;;;;;4.65;2.38;;;;;;;17.62;37.81;101153.59;5029344;28;20162;-21
2021/05/09 07:45:22;;;;;;;3.42;2.10;;;;;;;17.22;39.91;101138.25;5029223;28;20473;-20
2021/05/09 07:47:47;;;;;;;3.57;1.73;;;;;;;17.30;36.97;101133.53;5029342;28;20030;-23
2021/05/09 07:50:14;;;;;;;5.35;2.08;;;;;;;17.29;37.63;101137.28;5028652;28;20053;-22
2021/05/09 07:52:39;;;;;;;4.93;2.13;;;;;;;17.19;36.71;101130.59;5029288;28;20075;-23
2021/05/09 07:55:06;;;;;;;3.50;1.95;;;;;;;16.96;37.59;101133.31;5029019;28;20034;-23
2021/05/09 07:57:31;;;;;;;3.13;1.75;;;;;;;16.71;37.76;101150.50;5029146;28;20067;-23
2021/05/09 07:59:57;;;;;;;3.38;1.63;;;;;;;16.81;37.75;101142.69;5028995;28;20040;-23
2021/05/09 08:02:22;;;;;;;7.10;2.38;;;;;;;17.53;38.97;101138.88;5029036;28;20037;-23
2021/05/09 08:04:48;;;;;;;6.30;3.00;;;;;;;17.93;39.58;101156.94;5027940;28;20033;-23
2021/05/09 08:07:13;;;;;;;8.10;2.13;;;;;;;17.96;38.88;101155.63;5028894;28;20401;-22
2021/05/09 08:09:39;;;;;;;8.23;2.08;;;;;;;17.61;39.78;101167.31;5028941;28;20486;-23
2021/05/09 08:12:05;;;;;;;11.30;5.20;;;;;;;17.97;37.71;101160.78;5028785;28;20037;-20
2021/05/09 08:14:30;;;;;;;7.05;2.90;;;;;;;17.66;37.28;101152.06;5028719;28;20061;-21
2021/05/09 08:16:56;;;;;;;5.85;2.92;;;;;;;17.97;39.79;101150.00;5028929;28;20037;-22
2021/05/09 08:19:22;;;;;;;4.85;1.70;;;;;;;17.57;38.33;101155.38;5028832;28;20072;-22
2021/05/09 08:21:48;;;;;;;5.43;1.70;;;;;;;17.64;36.18;101148.78;5028694;28;20037;-22
2021/05/09 08:24:14;;;;;;;4.88;1.90;;;;;;;17.22;38.84;101151.72;5028474;28;20025;-21
2021/05/09 08:26:39;;;;;;;7.00;2.60;;;;;;;17.90;37.77;101159.28;5028535;28;20067;-23
2021/05/09 08:29:06;;;;;;;7.28;3.50;;;;;;;18.13;37.98;101159.19;5028368;28;20029;-21
2021/05/09 08:31:31;;;;;;;4.75;2.10;;;;;;;18.00;36.38;101154.91;5028712;28;20040;-21
2021/05/09 08:33:58;;;;;;;6.55;2.22;;;;;;;18.37;36.68;101153.66;5028327;28;20037;-21
2021/05/09 08:36:24;;;;;;;4.38;1.98;;;;;;;18.51;36.11;101163.09;5026953;28;20052;-21
2021/05/09 08:38:49;;;;;;;2.45;1.60;;;;;;;18.52;37.32;101155.81;5028280;28;20478;-21
2021/05/09 08:41:15;;;;;;;5.07;1.83;;;;;;;18.95;37.43;101155.16;5028255;28;20033;-21
2021/05/09 08:43:41;;;;;;;7.82;2.00;;;;;;;19.15;35.66;101160.03;5028269;28;20036;-21
2021/05/09 08:46:07;;;;;;;5.40;1.92;;;;;;;18.87;35.61;101164.50;5010707;28;20548;-21
2021/05/09 08:48:32;;;;;;;4.75;2.17;;;;;;;19.37;34.59;101156.53;5028186;28;20034;-21
2021/05/09 08:50:58;;;;;;;4.75;1.83;;;;;;;19.70;33.86;101143.97;5026872;28;20517;-21
2021/05/09 08:53:23;;;;;;;4.32;2.28;;;;;;;19.82;33.59;101164.44;5026663;28;20572;-21
2021/05/09 08:55:49;;;;;;;4.80;1.73;;;;;;;20.20;33.64;101157.22;5026801;28;20064;-19
2021/05/09 08:58:14;;;;;;;4.55;1.52;;;;;;;19.48;33.90;101163.72;5028351;28;20798;-21
2021/05/09 09:00:40;;;;;;;4.70;2.20;;;;;;;19.64;32.75;101173.66;5027905;28;20090;-21
2021/05/09 09:03:05;;;;;;;3.15;2.00;;;;;;;19.22;35.81;101138.22;5028128;28;20111;-24
2021/05/09 09:05:35;;;;;;;5.88;1.70;;;;;;;19.84;35.36;101172.31;5027925;28;20036;-23
2021/05/09 09:08:00;;;;;;;6.50;1.70;;;;;;;19.75;34.37;101160.28;5026704;28;20032;-24
2021/05/09 09:10:45;;;;;;;4.40;1.92;;;;;;;19.68;35.68;101163.97;5027616;28;20029;-21
2021/05/09 09:13:30;;;;;;;3.38;1.75;;;;;;;19.56;35.99;101152.44;5027748;28;20021;-21
2021/05/09 09:16:02;;;;;;;3.00;1.65;;;;;;;19.63;34.77;101150.34;5027778;28;20036;-21
2021/05/09 09:18:31;;;;;;;4.38;1.98;;;;;;;19.80;34.54;101144.91;5027147;28;20036;-21
2021/05/09 09:21:17;;;;;;;6.03;2.10;;;;;;;19.79;35.11;101147.88;5027746;28;20037;-21
2021/05/09 09:23:43;;;;;;;21.00;3.90;;;;;;;20.19;33.45;101141.25;5027294;28;20036;-21
2021/05/09 09:26:25;;;;;;;6.15;1.90;;;;;;;20.19;33.71;101130.41;5027562;28;20029;-21
2021/05/09 09:28:50;;;;;;;5.25;2.08;;;;;;;19.86;34.95;101137.69;5027696;28;20029;-21
2021/05/09 09:31:16;;;;;;;8.13;2.42;;;;;;;19.95;35.55;101125.31;5027756;28;20491;-21
2021/05/09 09:33:50;;;;;;;5.07;2.33;;;;;;;20.72;34.62;101117.84;5027875;28;20029;-21
2021/05/09 09:36:19;;;;;;;5.35;1.83;;;;;;;20.73;35.38;101121.38;5027477;28;20030;-21
2021/05/09 09:38:48;;;;;;;5.75;2.10;;;;;;;20.84;33.42;101123.06;5027898;28;20064;-21
2021/05/09 09:41:19;;;;;;;5.63;1.83;;;;;;;21.05;33.08;101129.44;5028041;28;20036;-21
2021/05/09 09:44:04;;;;;;;4.97;1.95;;;;;;;21.03;34.53;101123.47;5027997;28;20083;-21
2021/05/09 09:46:51;;;;;;;6.82;2.60;;;;;;;21.16;34.51;101114.81;5025831;28;20025;-21
2021/05/09 09:49:30;;;;;;;3.75;1.80;;;;;;;21.22;32.91;101113.78;5027479;28;20033;-21
2021/05/09 09:51:59;;;;;;;2.78;1.98;;;;;;;21.41;32.98;101118.72;5027512;28;20037;-21
2021/05/09 09:54:46;;;;;;;5.53;1.88;;;;;;;21.63;31.43;101111.22;5027216;28;20033;-21
2021/05/09 09:57:11;;;;;;;3.85;1.98;;;;;;;21.36;32.48;101121.44;5027343;28;20033;-21
2021/05/09 09:59:37;;;;;;;2.83;2.05;;;;;;;21.57;32.79;101111.50;5027480;28;20383;-21
2021/05/09 10:02:03;;;;;;;5.03;2.40;;;;;;;21.02;33.46;101121.81;5026358;28;20026;-21
2021/05/09 10:04:29;;;;;;;7.57;2.22;;;;;;;21.44;32.86;101131.81;5027138;28;20155;-21
2021/05/09 10:06:54;;;;;;;5.70;2.45;;;;;;;20.81;33.07;101110.84;5027297;28;20025;-20
2021/05/09 10:09:20;;;;;;;3.05;2.10;;;;;;;21.01;31.45;101120.19;5027194;28;20160;-20
2021/05/09 10:11:45;;;;;;;5.47;2.17;;;;;;;21.90;31.80;101125.69;5027752;28;20037;-20
2021/05/09 10:14:11;;;;;;;6.68;3.00;;;;;;;21.79;32.40;101119.44;5027344;28;20124;-21
2021/05/09 10:16:44;;;;;;;5.85;3.25;;;;;;;21.53;32.98;101118.53;5027113;28;20060;-21
2021/05/09 10:19:13;;;;;;;11.60;3.70;;;;;;;21.39;33.74;101120.91;5009644;28;20030;-21
2021/05/09 10:21:42;;;;;;;6.05;2.90;;;;;;;21.30;33.44;101111.66;5027044;28;20033;-21
2021/05/09 10:24:17;;;;;;;11.48;2.70;;;;;;;21.82;32.05;101108.03;5027305;28;20561;-21
2021/05/09 10:26:48;;;;;;;8.60;2.95;;;;;;;22.29;31.38;101117.88;5026987;28;20417;-21
2021/05/09 10:29:47;;;;;;;5.53;2.20;;;;;;;22.32;29.80;101117.34;5027376;28;20814;-21
2021/05/09 10:32:18;;;;;;;3.20;2.10;;;;;;;22.18;30.17;101114.31;5028896;28;20045;-21
2021/05/09 10:34:56;;;;;;;3.83;2.33;;;;;;;22.81;29.72;101118.66;5030555;28;20405;-21
2021/05/09 10:40:36;;;;;;;3.33;2.13;;;;;;;22.43;30.56;101119.00;5030914;28;20044;-21
2021/05/09 10:43:01;;;;;;;6.32;3.17;;;;;;;22.27;30.97;101115.44;5030603;28;20060;-23
2021/05/09 10:45:30;;;;;;;4.65;2.22;;;;;;;22.07;30.01;101113.50;5030730;28;20120;-21
2021/05/09 10:48:21;;;;;;;3.25;2.03;;;;;;;22.18;28.52;101089.88;5030683;28;20398;-21
2021/05/09 10:50:57;;;;;;;3.28;2.20;;;;;;;22.23;30.09;101102.63;5029956;28;20557;-21
2021/05/09 10:53:34;;;;;;;3.60;2.10;;;;;;;22.50;29.43;101110.56;5030514;28;20037;-21
2021/05/09 10:56:15;;;;;;;4.20;2.40;;;;;;;23.50;29.22;101094.47;5030227;28;20033;-22
2021/05/09 10:58:41;;;;;;;3.35;1.90;;;;;;;24.11;28.00;101106.91;5029737;28;20394;-21
2021/05/09 11:01:06;;;;;;;2.95;1.80;;;;;;;23.73;27.82;101101.16;5030107;28;20530;-20
2021/05/09 11:03:34;;;;;;;6.78;2.05;;;;;;;23.87;27.67;101107.66;5030131;28;20036;-21
2021/05/09 11:06:04;;;;;;;2.58;1.80;;;;;;;23.99;27.34;101099.13;5029094;28;20777;-21
2021/05/09 11:08:42;;;;;;;3.10;2.00;;;;;;;24.32;26.66;101092.03;5029850;28;20082;-21
2021/05/09 11:11:26;;;;;;;3.70;1.83;;;;;;;23.09;26.41;101084.63;5030150;28;20037;-21
2021/05/09 11:16:32;;;;;;;7.88;2.00;;;;;;;24.40;27.55;101075.06;5029680;28;20469;-21
2021/05/09 11:19:04;;;;;;;4.47;1.80;;;;;;;24.26;27.13;101098.63;5030397;28;20250;-19
2021/05/09 11:21:31;;;;;;;3.10;2.10;;;;;;;24.11;26.66;101093.28;5029860;28;20041;-21
2021/05/09 11:24:00;;;;;;;3.95;1.80;;;;;;;23.70;26.58;101090.81;5029678;28;20025;-21
2021/05/09 11:26:27;;;;;;;3.65;1.60;;;;;;;23.47;25.98;101076.78;5029351;28;20029;-21
2021/05/09 11:29:05;;;;;;;3.53;1.77;;;;;;;24.89;25.23;101077.84;5029819;28;20052;-21
2021/05/09 11:31:30;;;;;;;4.13;1.88;;;;;;;24.84;24.65;101065.06;5029842;28;20091;-20